sensor_id;sensor_type;location;lat;lon;timestamp;pressure;altitude;pressure_sealevel;temperature;humidity
77216;BME280;66210;53.282;9.864;2023-02-15T00:00:06;102492.22;;;2.62;88.16
77216;BME280;66210;53.282;9.864;2023-02-15T00:02:36;102482.34;;;2.63;88.17
77216;BME280;66210;53.282;9.864;2023-02-15T00:05:03;102482.84;;;2.68;88.34
77216;BME280;66210;53.282;9.864;2023-02-15T00:07:29;102489.78;;;2.70;88.28
77216;BME280;66210;53.282;9.864;2023-02-15T00:09:56;102490.84;;;2.73;87.96
77216;BME280;66210;53.282;9.864;2023-02-15T00:12:23;102476.38;;;2.70;88.21
77216;BME280;66210;53.282;9.864;2023-02-15T00:14:51;102486.50;;;2.79;88.23
77216;BME280;66210;53.282;9.864;2023-02-15T00:17:18;102479.09;;;2.80;88.39
77216;BME280;66210;53.282;9.864;2023-02-15T00:19:45;102480.16;;;2.82;88.29
77216;BME280;66210;53.282;9.864;2023-02-15T00:22:11;102478.69;;;2.84;88.13
77216;BME280;66210;53.282;9.864;2023-02-15T00:24:38;102478.56;;;2.83;88.35
77216;BME280;66210;53.282;9.864;2023-02-15T00:27:04;102476.94;;;2.83;88.26
77216;BME280;66210;53.282;9.864;2023-02-15T00:29:31;102472.78;;;2.84;88.57
77216;BME280;66210;53.282;9.864;2023-02-15T00:31:57;102481.38;;;2.86;88.78
77216;BME280;66210;53.282;9.864;2023-02-15T00:34:26;102479.03;;;2.87;88.95
77216;BME280;66210;53.282;9.864;2023-02-15T00:36:53;102473.66;;;2.84;88.81
77216;BME280;66210;53.282;9.864;2023-02-15T00:39:20;102466.53;;;2.80;88.93
77216;BME280;66210;53.282;9.864;2023-02-15T00:41:47;102471.75;;;2.82;88.98
77216;BME280;66210;53.282;9.864;2023-02-15T00:44:13;102465.84;;;2.81;89.27
77216;BME280;66210;53.282;9.864;2023-02-15T00:46:40;102466.13;;;2.84;89.22
77216;BME280;66210;53.282;9.864;2023-02-15T00:49:07;102463.31;;;2.81;89.05
77216;BME280;66210;53.282;9.864;2023-02-15T00:51:33;102462.09;;;2.78;89.28
77216;BME280;66210;53.282;9.864;2023-02-15T00:54:00;102461.97;;;2.76;89.17
77216;BME280;66210;53.282;9.864;2023-02-15T00:56:26;102456.47;;;2.72;89.44
77216;BME280;66210;53.282;9.864;2023-02-15T00:58:54;102460.09;;;2.66;89.26
77216;BME280;66210;53.282;9.864;2023-02-15T01:01:21;102456.22;;;2.61;89.38
77216;BME280;66210;53.282;9.864;2023-02-15T01:03:48;102455.91;;;2.58;89.50
77216;BME280;66210;53.282;9.864;2023-02-15T01:06:15;102448.94;;;2.56;89.50
77216;BME280;66210;53.282;9.864;2023-02-15T01:08:43;102454.00;;;2.48;89.81
77216;BME280;66210;53.282;9.864;2023-02-15T01:11:15;102450.88;;;2.42;89.95
77216;BME280;66210;53.282;9.864;2023-02-15T01:13:53;102445.59;;;2.32;90.17
77216;BME280;66210;53.282;9.864;2023-02-15T01:16:20;102448.38;;;2.26;90.32
77216;BME280;66210;53.282;9.864;2023-02-15T01:18:47;102445.09;;;2.27;90.59
77216;BME280;66210;53.282;9.864;2023-02-15T01:21:20;102429.88;;;2.26;90.23
77216;BME280;66210;53.282;9.864;2023-02-15T01:23:46;102427.94;;;2.23;90.23
77216;BME280;66210;53.282;9.864;2023-02-15T01:26:14;102431.59;;;2.18;90.00
77216;BME280;66210;53.282;9.864;2023-02-15T01:28:40;102423.41;;;2.12;90.61
77216;BME280;66210;53.282;9.864;2023-02-15T01:31:10;102429.47;;;2.14;90.07
77216;BME280;66210;53.282;9.864;2023-02-15T01:33:37;102423.59;;;2.14;90.75
77216;BME280;66210;53.282;9.864;2023-02-15T01:36:04;102426.66;;;2.11;89.73
77216;BME280;66210;53.282;9.864;2023-02-15T01:38:31;102423.97;;;2.10;90.12
77216;BME280;66210;53.282;9.864;2023-02-15T01:41:01;102415.72;;;2.11;90.04
77216;BME280;66210;53.282;9.864;2023-02-15T01:43:52;102414.44;;;2.14;90.37
77216;BME280;66210;53.282;9.864;2023-02-15T01:46:28;102414.13;;;2.11;90.29
77216;BME280;66210;53.282;9.864;2023-02-15T01:49:02;102415.41;;;2.07;90.71
77216;BME280;66210;53.282;9.864;2023-02-15T01:51:34;102421.47;;;2.10;89.80
77216;BME280;66210;53.282;9.864;2023-02-15T01:54:18;102407.31;;;2.10;90.06
77216;BME280;66210;53.282;9.864;2023-02-15T01:56:47;102403.34;;;2.12;89.66
77216;BME280;66210;53.282;9.864;2023-02-15T01:59:19;102411.19;;;2.15;90.09
77216;BME280;66210;53.282;9.864;2023-02-15T02:01:46;102414.03;;;2.18;89.92
77216;BME280;66210;53.282;9.864;2023-02-15T02:04:23;102406.53;;;2.18;89.60
77216;BME280;66210;53.282;9.864;2023-02-15T02:06:52;102398.13;;;2.18;90.07
77216;BME280;66210;53.282;9.864;2023-02-15T02:09:20;102401.69;;;2.20;89.52
77216;BME280;66210;53.282;9.864;2023-02-15T02:11:50;102394.88;;;2.19;89.54
77216;BME280;66210;53.282;9.864;2023-02-15T02:14:18;102392.94;;;2.16;89.48
77216;BME280;66210;53.282;9.864;2023-02-15T02:17:04;102396.00;;;2.14;89.43
77216;BME280;66210;53.282;9.864;2023-02-15T02:22:43;102382.63;;;2.06;89.39
77216;BME280;66210;53.282;9.864;2023-02-15T02:30:53;102371.22;;;2.01;89.24
77216;BME280;66210;53.282;9.864;2023-02-15T02:33:49;102363.41;;;1.98;89.89
77216;BME280;66210;53.282;9.864;2023-02-15T02:39:00;102359.66;;;1.94;89.87
77216;BME280;66210;53.282;9.864;2023-02-15T02:41:38;102359.34;;;1.91;89.24
77216;BME280;66210;53.282;9.864;2023-02-15T02:47:02;102369.97;;;1.81;88.97
77216;BME280;66210;53.282;9.864;2023-02-15T02:49:42;102365.53;;;1.79;89.27
77216;BME280;66210;53.282;9.864;2023-02-15T02:52:39;102358.97;;;1.72;88.72
77216;BME280;66210;53.282;9.864;2023-02-15T02:55:11;102356.22;;;1.62;89.29
77216;BME280;66210;53.282;9.864;2023-02-15T02:57:44;102371.97;;;1.61;89.36
77216;BME280;66210;53.282;9.864;2023-02-15T03:00:13;102360.56;;;1.56;89.67
77216;BME280;66210;53.282;9.864;2023-02-15T03:02:44;102359.84;;;1.57;90.25
77216;BME280;66210;53.282;9.864;2023-02-15T03:05:17;102349.50;;;1.54;89.66
77216;BME280;66210;53.282;9.864;2023-02-15T03:07:49;102345.94;;;1.52;89.49
77216;BME280;66210;53.282;9.864;2023-02-15T03:10:21;102350.75;;;1.50;89.77
77216;BME280;66210;53.282;9.864;2023-02-15T03:12:49;102346.38;;;1.40;89.31
77216;BME280;66210;53.282;9.864;2023-02-15T03:15:20;102339.16;;;1.28;89.43
77216;BME280;66210;53.282;9.864;2023-02-15T03:17:57;102337.81;;;1.15;88.99
77216;BME280;66210;53.282;9.864;2023-02-15T03:20:29;102337.88;;;1.08;90.04
77216;BME280;66210;53.282;9.864;2023-02-15T03:23:12;102331.69;;;0.97;89.71
77216;BME280;66210;53.282;9.864;2023-02-15T03:25:42;102319.25;;;0.90;90.06
77216;BME280;66210;53.282;9.864;2023-02-15T03:28:11;102329.41;;;0.92;89.96
77216;BME280;66210;53.282;9.864;2023-02-15T03:30:42;102321.50;;;0.96;89.91
77216;BME280;66210;53.282;9.864;2023-02-15T03:33:10;102325.25;;;0.99;90.00
77216;BME280;66210;53.282;9.864;2023-02-15T03:35:53;102324.88;;;1.03;90.00
77216;BME280;66210;53.282;9.864;2023-02-15T03:38:49;102315.19;;;1.07;89.81
77216;BME280;66210;53.282;9.864;2023-02-15T03:41:18;102314.13;;;1.04;90.32
77216;BME280;66210;53.282;9.864;2023-02-15T03:43:56;102313.78;;;1.01;89.56
77216;BME280;66210;53.282;9.864;2023-02-15T03:46:30;102318.84;;;0.94;89.52
77216;BME280;66210;53.282;9.864;2023-02-15T03:49:03;102311.34;;;0.94;89.78
77216;BME280;66210;53.282;9.864;2023-02-15T03:51:35;102312.56;;;0.98;89.97
77216;BME280;66210;53.282;9.864;2023-02-15T03:54:08;102300.41;;;1.01;90.17
77216;BME280;66210;53.282;9.864;2023-02-15T03:56:38;102304.84;;;1.03;90.09
77216;BME280;66210;53.282;9.864;2023-02-15T03:59:05;102306.63;;;1.04;90.25
77216;BME280;66210;53.282;9.864;2023-02-15T04:02:06;102301.03;;;1.07;90.25
77216;BME280;66210;53.282;9.864;2023-02-15T04:04:40;102303.72;;;1.09;90.13
77216;BME280;66210;53.282;9.864;2023-02-15T04:07:08;102303.16;;;1.11;90.45
77216;BME280;66210;53.282;9.864;2023-02-15T04:09:35;102296.41;;;1.10;89.60
77216;BME280;66210;53.282;9.864;2023-02-15T04:12:21;102300.66;;;1.11;89.95
77216;BME280;66210;53.282;9.864;2023-02-15T04:14:47;102304.03;;;1.12;89.91
77216;BME280;66210;53.282;9.864;2023-02-15T04:17:33;102307.09;;;1.09;89.25
77216;BME280;66210;53.282;9.864;2023-02-15T04:20:02;102306.06;;;1.07;89.50
77216;BME280;66210;53.282;9.864;2023-02-15T04:22:47;102296.41;;;1.03;89.68
77216;BME280;66210;53.282;9.864;2023-02-15T04:25:32;102296.97;;;1.00;89.83
77216;BME280;66210;53.282;9.864;2023-02-15T04:27:59;102296.66;;;0.97;89.09
77216;BME280;66210;53.282;9.864;2023-02-15T04:30:26;102301.66;;;0.97;89.87
77216;BME280;66210;53.282;9.864;2023-02-15T04:32:53;102308.09;;;0.95;89.92
77216;BME280;66210;53.282;9.864;2023-02-15T04:35:20;102300.09;;;0.91;89.24
77216;BME280;66210;53.282;9.864;2023-02-15T04:37:47;102300.72;;;0.81;89.49
77216;BME280;66210;53.282;9.864;2023-02-15T04:40:14;102292.16;;;0.72;89.86
77216;BME280;66210;53.282;9.864;2023-02-15T04:42:47;102295.63;;;0.65;90.02
77216;BME280;66210;53.282;9.864;2023-02-15T04:45:15;102295.47;;;0.64;89.28
77216;BME280;66210;53.282;9.864;2023-02-15T04:47:43;102276.56;;;0.58;89.90
77216;BME280;66210;53.282;9.864;2023-02-15T04:50:10;102289.06;;;0.58;89.60
77216;BME280;66210;53.282;9.864;2023-02-15T04:52:36;102281.56;;;0.51;89.64
77216;BME280;66210;53.282;9.864;2023-02-15T04:55:03;102277.88;;;0.48;89.47
77216;BME280;66210;53.282;9.864;2023-02-15T04:57:31;102272.34;;;0.43;89.63
77216;BME280;66210;53.282;9.864;2023-02-15T04:59:58;102280.19;;;0.46;89.61
77216;BME280;66210;53.282;9.864;2023-02-15T05:02:25;102270.00;;;0.45;89.51
77216;BME280;66210;53.282;9.864;2023-02-15T05:04:52;102268.25;;;0.44;89.88
77216;BME280;66210;53.282;9.864;2023-02-15T05:07:19;102274.84;;;0.43;90.24
77216;BME280;66210;53.282;9.864;2023-02-15T05:09:47;102268.94;;;0.43;89.97
77216;BME280;66210;53.282;9.864;2023-02-15T05:12:13;102261.44;;;0.43;89.54
77216;BME280;66210;53.282;9.864;2023-02-15T05:14:40;102257.72;;;0.39;89.73
77216;BME280;66210;53.282;9.864;2023-02-15T05:17:09;102255.59;;;0.35;89.45
77216;BME280;66210;53.282;9.864;2023-02-15T05:19:36;102259.22;;;0.30;89.67
77216;BME280;66210;53.282;9.864;2023-02-15T05:22:05;102261.53;;;0.28;89.57
77216;BME280;66210;53.282;9.864;2023-02-15T05:24:32;102269.25;;;0.23;89.70
77216;BME280;66210;53.282;9.864;2023-02-15T05:27:17;102257.31;;;0.13;89.70
77216;BME280;66210;53.282;9.864;2023-02-15T05:30:02;102262.50;;;0.14;89.71
77216;BME280;66210;53.282;9.864;2023-02-15T05:32:29;102266.44;;;0.12;89.87
77216;BME280;66210;53.282;9.864;2023-02-15T05:34:56;102255.91;;;0.08;89.59
77216;BME280;66210;53.282;9.864;2023-02-15T05:37:23;102253.97;;;0.05;89.46
77216;BME280;66210;53.282;9.864;2023-02-15T05:39:50;102254.66;;;0.04;89.56
77216;BME280;66210;53.282;9.864;2023-02-15T05:42:16;102252.53;;;0.07;89.77
77216;BME280;66210;53.282;9.864;2023-02-15T05:44:43;102251.25;;;0.11;90.11
77216;BME280;66210;53.282;9.864;2023-02-15T05:47:10;102255.88;;;0.15;89.56
77216;BME280;66210;53.282;9.864;2023-02-15T05:49:36;102241.78;;;0.15;89.44
77216;BME280;66210;53.282;9.864;2023-02-15T05:52:03;102245.00;;;0.14;89.74
77216;BME280;66210;53.282;9.864;2023-02-15T05:54:30;102234.31;;;0.08;89.54
77216;BME280;66210;53.282;9.864;2023-02-15T05:56:57;102230.97;;;0.01;89.35
77216;BME280;66210;53.282;9.864;2023-02-15T05:59:24;102226.16;;;-0.05;89.26
77216;BME280;66210;53.282;9.864;2023-02-15T06:01:50;102231.72;;;-0.08;90.12
77216;BME280;66210;53.282;9.864;2023-02-15T06:04:17;102231.88;;;-0.06;89.77
77216;BME280;66210;53.282;9.864;2023-02-15T06:06:44;102232.22;;;-0.03;89.75
77216;BME280;66210;53.282;9.864;2023-02-15T06:09:12;102236.16;;;-0.05;89.83
77216;BME280;66210;53.282;9.864;2023-02-15T06:11:39;102224.03;;;-0.09;90.06
77216;BME280;66210;53.282;9.864;2023-02-15T06:14:05;102216.56;;;-0.16;89.61
77216;BME280;66210;53.282;9.864;2023-02-15T06:16:32;102227.47;;;-0.23;89.80
77216;BME280;66210;53.282;9.864;2023-02-15T06:18:59;102223.41;;;-0.30;90.29
77216;BME280;66210;53.282;9.864;2023-02-15T06:21:28;102220.75;;;-0.31;90.10
77216;BME280;66210;53.282;9.864;2023-02-15T06:23:55;102219.28;;;-0.29;89.86
77216;BME280;66210;53.282;9.864;2023-02-15T06:26:22;102222.69;;;-0.29;90.04
77216;BME280;66210;53.282;9.864;2023-02-15T06:28:48;102229.28;;;-0.22;90.00
77216;BME280;66210;53.282;9.864;2023-02-15T06:31:15;102231.56;;;-0.16;90.28
77216;BME280;66210;53.282;9.864;2023-02-15T06:33:42;102230.47;;;-0.11;90.14
77216;BME280;66210;53.282;9.864;2023-02-15T06:36:09;102223.69;;;-0.12;89.65
77216;BME280;66210;53.282;9.864;2023-02-15T06:38:35;102228.72;;;-0.19;89.61
77216;BME280;66210;53.282;9.864;2023-02-15T06:41:02;102231.22;;;-0.19;89.77
77216;BME280;66210;53.282;9.864;2023-02-15T06:43:29;102231.22;;;-0.19;89.91
77216;BME280;66210;53.282;9.864;2023-02-15T06:45:55;102230.88;;;-0.15;89.46
77216;BME280;66210;53.282;9.864;2023-02-15T06:48:22;102238.50;;;-0.14;89.97
77216;BME280;66210;53.282;9.864;2023-02-15T06:50:49;102229.44;;;-0.13;89.95
77216;BME280;66210;53.282;9.864;2023-02-15T06:53:16;102240.31;;;-0.13;89.76
77216;BME280;66210;53.282;9.864;2023-02-15T06:55:42;102238.69;;;-0.12;89.99
77216;BME280;66210;53.282;9.864;2023-02-15T06:58:09;102244.75;;;-0.10;89.50
77216;BME280;66210;53.282;9.864;2023-02-15T07:00:36;102239.03;;;-0.09;89.36
77216;BME280;66210;53.282;9.864;2023-02-15T07:03:02;102235.81;;;-0.08;89.70
77216;BME280;66210;53.282;9.864;2023-02-15T07:05:32;102239.19;;;-0.08;89.73
77216;BME280;66210;53.282;9.864;2023-02-15T07:08:00;102240.44;;;-0.04;89.86
77216;BME280;66210;53.282;9.864;2023-02-15T07:10:27;102234.53;;;-0.05;89.60
77216;BME280;66210;53.282;9.864;2023-02-15T07:12:54;102227.59;;;-0.07;89.48
77216;BME280;66210;53.282;9.864;2023-02-15T07:15:21;102229.03;;;-0.09;89.84
77216;BME280;66210;53.282;9.864;2023-02-15T07:17:48;102235.63;;;-0.10;88.96
77216;BME280;66210;53.282;9.864;2023-02-15T07:20:19;102230.66;;;-0.10;89.52
77216;BME280;66210;53.282;9.864;2023-02-15T07:22:47;102236.88;;;-0.06;89.65
77216;BME280;66210;53.282;9.864;2023-02-15T07:25:15;102240.28;;;-0.06;89.46
77216;BME280;66210;53.282;9.864;2023-02-15T07:27:42;102235.28;;;-0.06;89.60
77216;BME280;66210;53.282;9.864;2023-02-15T07:30:12;102239.19;;;-0.08;89.48
77216;BME280;66210;53.282;9.864;2023-02-15T07:32:40;102230.81;;;-0.08;89.57
77216;BME280;66210;53.282;9.864;2023-02-15T07:35:30;102217.22;;;-0.03;89.69
77216;BME280;66210;53.282;9.864;2023-02-15T07:37:56;102215.47;;;-0.04;89.05
77216;BME280;66210;53.282;9.864;2023-02-15T07:40:23;102219.78;;;-0.10;89.34
77216;BME280;66210;53.282;9.864;2023-02-15T07:42:50;102215.69;;;-0.17;89.27
77216;BME280;66210;53.282;9.864;2023-02-15T07:45:21;102211.63;;;-0.24;89.19
77216;BME280;66210;53.282;9.864;2023-02-15T07:47:48;102206.66;;;-0.31;89.66
77216;BME280;66210;53.282;9.864;2023-02-15T07:50:15;102206.13;;;-0.35;89.73
77216;BME280;66210;53.282;9.864;2023-02-15T07:52:41;102204.53;;;-0.35;89.80
77216;BME280;66210;53.282;9.864;2023-02-15T07:55:08;102200.03;;;-0.30;89.71
77216;BME280;66210;53.282;9.864;2023-02-15T07:57:35;102193.25;;;-0.24;90.14
77216;BME280;66210;53.282;9.864;2023-02-15T08:00:03;102185.91;;;-0.23;89.74
77216;BME280;66210;53.282;9.864;2023-02-15T08:02:30;102176.81;;;-0.22;89.86
77216;BME280;66210;53.282;9.864;2023-02-15T08:04:56;102184.47;;;-0.21;89.71
77216;BME280;66210;53.282;9.864;2023-02-15T08:07:23;102188.41;;;-0.23;89.72
77216;BME280;66210;53.282;9.864;2023-02-15T08:09:50;102173.97;;;-0.25;90.03
77216;BME280;66210;53.282;9.864;2023-02-15T08:12:16;102186.31;;;-0.27;89.74
77216;BME280;66210;53.282;9.864;2023-02-15T08:14:43;102181.47;;;-0.25;89.80
77216;BME280;66210;53.282;9.864;2023-02-15T08:17:10;102173.78;;;-0.19;89.94
77216;BME280;66210;53.282;9.864;2023-02-15T08:19:37;102175.16;;;-0.14;90.36
77216;BME280;66210;53.282;9.864;2023-02-15T08:22:07;102172.31;;;-0.10;90.11
77216;BME280;66210;53.282;9.864;2023-02-15T08:24:37;102178.53;;;-0.07;90.26
77216;BME280;66210;53.282;9.864;2023-02-15T08:27:05;102183.13;;;-0.03;90.18
77216;BME280;66210;53.282;9.864;2023-02-15T08:29:33;102183.81;;;0.04;90.14
77216;BME280;66210;53.282;9.864;2023-02-15T08:32:03;102185.22;;;0.09;90.01
77216;BME280;66210;53.282;9.864;2023-02-15T08:34:33;102179.84;;;0.13;89.93
77216;BME280;66210;53.282;9.864;2023-02-15T08:37:00;102175.03;;;0.14;89.99
77216;BME280;66210;53.282;9.864;2023-02-15T08:39:27;102182.34;;;0.13;89.54
77216;BME280;66210;53.282;9.864;2023-02-15T08:41:54;102171.28;;;0.11;90.01
77216;BME280;66210;53.282;9.864;2023-02-15T08:44:20;102171.28;;;0.11;89.77
77216;BME280;66210;53.282;9.864;2023-02-15T08:46:48;102178.97;;;0.12;89.59
77216;BME280;66210;53.282;9.864;2023-02-15T08:49:18;102181.78;;;0.15;90.15
77216;BME280;66210;53.282;9.864;2023-02-15T08:51:46;102171.09;;;0.16;89.83
77216;BME280;66210;53.282;9.864;2023-02-15T08:54:15;102174.59;;;0.26;90.23
77216;BME280;66210;53.282;9.864;2023-02-15T08:56:48;102166.72;;;0.30;89.99
77216;BME280;66210;53.282;9.864;2023-02-15T08:59:18;102155.84;;;0.29;90.55
77216;BME280;66210;53.282;9.864;2023-02-15T09:01:46;102163.34;;;0.29;90.26
77216;BME280;66210;53.282;9.864;2023-02-15T09:04:13;102157.44;;;0.29;90.17
77216;BME280;66210;53.282;9.864;2023-02-15T09:06:42;102164.22;;;0.30;90.56
77216;BME280;66210;53.282;9.864;2023-02-15T09:09:14;102170.28;;;0.32;90.88
77216;BME280;66210;53.282;9.864;2023-02-15T09:11:43;102164.00;;;0.35;90.46
77216;BME280;66210;53.282;9.864;2023-02-15T09:14:12;102160.91;;;0.45;90.91
77216;BME280;66210;53.282;9.864;2023-02-15T09:16:41;102162.78;;;0.55;90.63
77216;BME280;66210;53.282;9.864;2023-02-15T09:19:08;102162.91;;;0.64;90.78
77216;BME280;66210;53.282;9.864;2023-02-15T09:21:37;102153.88;;;0.73;90.17
77216;BME280;66210;53.282;9.864;2023-02-15T09:24:07;102141.00;;;0.77;90.91
77216;BME280;66210;53.282;9.864;2023-02-15T09:26:39;102155.19;;;0.85;90.41
77216;BME280;66210;53.282;9.864;2023-02-15T09:29:10;102154.16;;;0.83;90.48
77216;BME280;66210;53.282;9.864;2023-02-15T09:31:40;102157.88;;;0.87;90.53
77216;BME280;66210;53.282;9.864;2023-02-15T09:34:13;102159.97;;;0.91;90.90
77216;BME280;66210;53.282;9.864;2023-02-15T09:36:40;102152.97;;;0.95;90.63
77216;BME280;66210;53.282;9.864;2023-02-15T09:39:11;102152.00;;;1.02;91.30
77216;BME280;66210;53.282;9.864;2023-02-15T10:01:05;102130.22;;;1.89;90.89
77216;BME280;66210;53.282;9.864;2023-02-15T10:06:41;102132.31;;;2.18;92.00
77216;BME280;66210;53.282;9.864;2023-02-15T10:14:57;102130.28;;;2.56;92.14
77216;BME280;66210;53.282;9.864;2023-02-15T10:17:41;102132.38;;;2.68;92.04
77216;BME280;66210;53.282;9.864;2023-02-15T10:20:21;102136.28;;;2.82;91.89
77216;BME280;66210;53.282;9.864;2023-02-15T10:23:01;102133.94;;;2.92;92.40
77216;BME280;66210;53.282;9.864;2023-02-15T10:25:53;102135.13;;;3.05;91.98
77216;BME280;66210;53.282;9.864;2023-02-15T10:28:41;102125.00;;;3.12;92.03
77216;BME280;66210;53.282;9.864;2023-02-15T10:31:27;102128.69;;;3.24;91.93
77216;BME280;66210;53.282;9.864;2023-02-15T10:34:13;102132.25;;;3.35;91.96
77216;BME280;66210;53.282;9.864;2023-02-15T10:37:15;102138.91;;;3.43;91.64
77216;BME280;66210;53.282;9.864;2023-02-15T10:45:29;102134.63;;;3.77;92.01
77216;BME280;66210;53.282;9.864;2023-02-15T10:48:36;102128.22;;;3.89;91.34
77216;BME280;66210;53.282;9.864;2023-02-15T10:51:11;102128.38;;;4.00;91.63
77216;BME280;66210;53.282;9.864;2023-02-15T10:56:36;102113.38;;;4.19;91.91
77216;BME280;66210;53.282;9.864;2023-02-15T10:59:26;102119.69;;;4.32;91.99
77216;BME280;66210;53.282;9.864;2023-02-15T11:02:02;102115.97;;;4.46;91.55
77216;BME280;66210;53.282;9.864;2023-02-15T11:04:53;102111.28;;;4.59;91.47
77216;BME280;66210;53.282;9.864;2023-02-15T11:09:51;102100.88;;;4.93;90.74
77216;BME280;66210;53.282;9.864;2023-02-15T11:12:24;102100.16;;;5.13;90.96
77216;BME280;66210;53.282;9.864;2023-02-15T11:17:28;102093.94;;;5.66;89.78
77216;BME280;66210;53.282;9.864;2023-02-15T11:20:14;102094.19;;;5.88;88.48
77216;BME280;66210;53.282;9.864;2023-02-15T11:22:47;102088.84;;;6.04;88.21
77216;BME280;66210;53.282;9.864;2023-02-15T11:25:19;102093.56;;;6.20;87.34
77216;BME280;66210;53.282;9.864;2023-02-15T11:27:47;102086.28;;;6.33;87.31
77216;BME280;66210;53.282;9.864;2023-02-15T11:30:27;102084.03;;;6.57;86.89
77216;BME280;66210;53.282;9.864;2023-02-15T11:33:02;102078.25;;;6.68;84.27
77216;BME280;66210;53.282;9.864;2023-02-15T11:35:51;102077.25;;;6.76;84.11
77216;BME280;66210;53.282;9.864;2023-02-15T11:38:22;102074.47;;;6.83;83.05
77216;BME280;66210;53.282;9.864;2023-02-15T11:40:54;102067.25;;;6.88;83.78
77216;BME280;66210;53.282;9.864;2023-02-15T11:44:00;102063.47;;;7.03;84.12
77216;BME280;66210;53.282;9.864;2023-02-15T11:46:29;102062.59;;;7.13;83.77
77216;BME280;66210;53.282;9.864;2023-02-15T11:48:56;102061.19;;;7.17;82.72
77216;BME280;66210;53.282;9.864;2023-02-15T11:51:25;102058.78;;;7.18;82.74
77216;BME280;66210;53.282;9.864;2023-02-15T11:53:54;102054.47;;;7.17;83.49
77216;BME280;66210;53.282;9.864;2023-02-15T11:56:24;102054.75;;;7.20;82.94
77216;BME280;66210;53.282;9.864;2023-02-15T11:58:58;102055.63;;;7.21;82.13
77216;BME280;66210;53.282;9.864;2023-02-15T12:01:35;102046.50;;;7.23;83.29
77216;BME280;66210;53.282;9.864;2023-02-15T12:06:44;102036.28;;;7.21;83.49
77216;BME280;66210;53.282;9.864;2023-02-15T12:09:18;102031.22;;;7.21;83.21
77216;BME280;66210;53.282;9.864;2023-02-15T12:11:49;102024.63;;;7.23;82.85
77216;BME280;66210;53.282;9.864;2023-02-15T12:14:16;102019.59;;;7.23;83.38
77216;BME280;66210;53.282;9.864;2023-02-15T12:16:46;102017.19;;;7.25;82.81
77216;BME280;66210;53.282;9.864;2023-02-15T12:19:31;102007.31;;;7.28;83.49
77216;BME280;66210;53.282;9.864;2023-02-15T12:22:01;102014.16;;;7.29;82.50
77216;BME280;66210;53.282;9.864;2023-02-15T12:24:31;102013.63;;;7.33;82.01
77216;BME280;66210;53.282;9.864;2023-02-15T12:29:35;102002.59;;;7.43;81.62
77216;BME280;66210;53.282;9.864;2023-02-15T12:32:11;102004.09;;;7.51;82.29
77216;BME280;66210;53.282;9.864;2023-02-15T12:34:42;101997.09;;;7.59;82.46
77216;BME280;66210;53.282;9.864;2023-02-15T12:37:15;102000.13;;;7.65;82.18
77216;BME280;66210;53.282;9.864;2023-02-15T12:39:57;101990.34;;;7.69;81.49
77216;BME280;66210;53.282;9.864;2023-02-15T12:42:26;101986.66;;;7.76;81.45
77216;BME280;66210;53.282;9.864;2023-02-15T12:44:59;101984.69;;;7.84;79.80
77216;BME280;66210;53.282;9.864;2023-02-15T12:47:27;101982.28;;;7.85;80.88
77216;BME280;66210;53.282;9.864;2023-02-15T12:50:23;101981.63;;;7.88;80.79
77216;BME280;66210;53.282;9.864;2023-02-15T12:53:01;101990.09;;;7.88;81.17
77216;BME280;66210;53.282;9.864;2023-02-15T12:55:31;101993.66;;;7.90;79.29
77216;BME280;66210;53.282;9.864;2023-02-15T12:58:06;101985.53;;;7.95;79.64
77216;BME280;66210;53.282;9.864;2023-02-15T13:00:33;101978.41;;;8.01;78.83
77216;BME280;66210;53.282;9.864;2023-02-15T13:03:01;101971.16;;;8.05;79.86
77216;BME280;66210;53.282;9.864;2023-02-15T13:05:36;101964.78;;;8.10;79.41
77216;BME280;66210;53.282;9.864;2023-02-15T13:08:16;101956.78;;;8.16;79.47
77216;BME280;66210;53.282;9.864;2023-02-15T13:13:31;101959.00;;;8.23;78.85
77216;BME280;66210;53.282;9.864;2023-02-15T13:16:15;101958.22;;;8.24;79.06
77216;BME280;66210;53.282;9.864;2023-02-15T13:18:45;101958.22;;;8.24;79.44
77216;BME280;66210;53.282;9.864;2023-02-15T13:21:13;101947.97;;;8.23;79.33
77216;BME280;66210;53.282;9.864;2023-02-15T13:23:44;101957.22;;;8.22;79.69
77216;BME280;66210;53.282;9.864;2023-02-15T13:26:16;101955.56;;;8.23;79.65
77216;BME280;66210;53.282;9.864;2023-02-15T13:28:55;101953.03;;;8.23;80.10
77216;BME280;66210;53.282;9.864;2023-02-15T13:31:26;101956.47;;;8.23;79.25
77216;BME280;66210;53.282;9.864;2023-02-15T13:33:58;101947.97;;;8.23;79.18
77216;BME280;66210;53.282;9.864;2023-02-15T13:36:34;101946.34;;;8.23;78.72
77216;BME280;66210;53.282;9.864;2023-02-15T13:39:22;101952.63;;;8.28;79.44
77216;BME280;66210;53.282;9.864;2023-02-15T13:44:57;101943.63;;;8.32;77.16
77216;BME280;66210;53.282;9.864;2023-02-15T13:47:50;101947.91;;;8.33;77.86
77216;BME280;66210;53.282;9.864;2023-02-15T13:50:43;101942.72;;;8.31;79.00
77216;BME280;66210;53.282;9.864;2023-02-15T13:53:33;101934.13;;;8.29;79.53
77216;BME280;66210;53.282;9.864;2023-02-15T13:56:46;101934.69;;;8.25;78.97
77216;BME280;66210;53.282;9.864;2023-02-15T13:59:43;101928.19;;;8.29;78.19
77216;BME280;66210;53.282;9.864;2023-02-15T14:07:56;101920.22;;;8.46;77.99
77216;BME280;66210;53.282;9.864;2023-02-15T14:10:43;101911.84;;;8.47;78.17
77216;BME280;66210;53.282;9.864;2023-02-15T14:13:24;101913.75;;;8.50;77.96
77216;BME280;66210;53.282;9.864;2023-02-15T14:15:59;101915.81;;;8.56;76.10
77216;BME280;66210;53.282;9.864;2023-02-15T14:18:42;101912.75;;;8.60;77.08
77216;BME280;66210;53.282;9.864;2023-02-15T14:21:19;101906.81;;;8.59;74.00
77216;BME280;66210;53.282;9.864;2023-02-15T14:30:00;101909.09;;;8.56;75.05
77216;BME280;66210;53.282;9.864;2023-02-15T14:32:46;101915.81;;;8.56;73.52
77216;BME280;66210;53.282;9.864;2023-02-15T14:35:20;101910.88;;;8.57;74.51
77216;BME280;66210;53.282;9.864;2023-02-15T14:40:51;101899.28;;;8.49;75.30
77216;BME280;66210;53.282;9.864;2023-02-15T14:46:30;101906.84;;;8.37;76.04